createdAt,value
2018-03-07T00:01:36.870Z,47.10
2018-03-07T00:04:06.780Z,49.60
2018-03-07T00:06:36.695Z,46.20
2018-03-07T00:09:07.026Z,42.77
2018-03-07T00:11:36.839Z,34.77
2018-03-07T00:14:06.751Z,35.90
2018-03-07T00:16:36.663Z,36.10
2018-03-07T00:19:07.190Z,37.23
2018-03-07T00:21:37.186Z,37.50
2018-03-07T00:24:07.942Z,36.03
2018-03-07T00:26:38.884Z,36.70
2018-03-07T00:29:09.601Z,38.63
2018-03-07T00:31:41.182Z,39.13
2018-03-07T00:34:11.100Z,36.80
2018-03-07T00:36:41.812Z,35.33
2018-03-07T00:39:12.334Z,34.70
2018-03-07T00:41:43.108Z,34.93
2018-03-07T00:44:13.800Z,36.10
2018-03-07T00:46:44.318Z,35.63
2018-03-07T00:49:14.962Z,37.40
2018-03-07T00:51:45.337Z,39.00
2018-03-07T00:54:15.999Z,40.10
2018-03-07T00:56:46.563Z,40.33
2018-03-07T00:59:17.150Z,40.23
2018-03-07T01:01:47.925Z,40.03
2018-03-07T01:04:18.998Z,42.10
2018-03-07T01:06:49.296Z,41.73
2018-03-07T01:09:20.287Z,42.63
2018-03-07T01:11:50.267Z,42.40
2018-03-07T01:14:21.300Z,42.80
2018-03-07T01:16:51.827Z,43.53
2018-03-07T01:19:23.541Z,38.50
2018-03-07T01:21:54.067Z,39.37
2018-03-07T01:24:23.944Z,38.90
2018-03-07T01:26:54.772Z,42.03
2018-03-07T01:29:25.220Z,40.00
2018-03-07T01:31:55.735Z,40.07
2018-03-07T01:34:26.350Z,38.70
2018-03-07T01:36:56.775Z,39.50
2018-03-07T01:39:27.344Z,38.10
2018-03-07T01:41:57.940Z,39.93
2018-03-07T01:44:28.446Z,37.33
2018-03-07T01:46:59.014Z,37.57
2018-03-07T01:49:30.073Z,36.17
2018-03-07T01:52:02.924Z,37.20
2018-03-07T01:54:34.427Z,34.10
2018-03-07T01:57:05.119Z,34.80
2018-03-07T01:59:35.654Z,37.63
2018-03-07T02:02:07.381Z,37.90
2018-03-07T02:04:37.934Z,41.90
2018-03-07T02:07:08.825Z,42.13
2018-03-07T02:09:40.939Z,43.50
2018-03-07T02:12:11.570Z,43.67
2018-03-07T02:14:42.563Z,41.60
2018-03-07T02:17:13.368Z,41.60
2018-03-07T02:19:44.803Z,41.57
2018-03-07T02:22:15.716Z,41.50
2018-03-07T02:24:46.351Z,44.53
2018-03-07T02:27:17.332Z,46.03
2018-03-07T02:29:49.460Z,50.10
2018-03-07T02:32:20.410Z,43.17
2018-03-07T02:34:51.345Z,36.07
2018-03-07T02:37:22.122Z,33.50
2018-03-07T02:39:52.666Z,33.07
2018-03-07T02:42:23.676Z,33.37
2018-03-07T02:44:54.535Z,30.47
2018-03-07T02:47:24.306Z,31.60
2018-03-07T02:49:54.931Z,30.00
2018-03-07T02:52:25.647Z,31.93
2018-03-07T02:54:56.947Z,31.83
2018-03-07T02:57:27.542Z,32.03
2018-03-07T02:59:58.545Z,31.47
2018-03-07T03:02:29.522Z,30.77
2018-03-07T03:05:00.337Z,30.03
2018-03-07T03:07:30.986Z,31.60
2018-03-07T03:10:01.729Z,28.93
2018-03-07T03:12:32.163Z,30.00
2018-03-07T03:15:03.263Z,30.57
2018-03-07T03:17:33.887Z,30.10
2018-03-07T03:20:04.078Z,30.43
2018-03-07T03:22:34.983Z,32.87
2018-03-07T03:25:06.119Z,32.13
2018-03-07T03:27:36.818Z,35.93
2018-03-07T03:30:06.970Z,36.47
2018-03-07T03:32:37.606Z,36.53
2018-03-07T03:35:07.835Z,37.43
2018-03-07T03:37:38.721Z,41.73
2018-03-07T03:40:09.363Z,39.33
2018-03-07T03:42:39.763Z,42.20
2018-03-07T03:45:09.745Z,42.50
2018-03-07T03:47:40.511Z,40.63
2018-03-07T03:50:11.107Z,43.60
2018-03-07T03:52:41.434Z,41.80
2018-03-07T03:55:12.246Z,41.27
2018-03-07T03:57:43.459Z,43.00
2018-03-07T04:00:14.294Z,42.00
2018-03-07T04:02:44.988Z,42.40
2018-03-07T04:05:16.094Z,45.53
2018-03-07T04:07:46.776Z,44.27
2018-03-07T04:10:17.944Z,46.97
2018-03-07T04:12:48.541Z,43.73
2018-03-07T04:15:19.257Z,39.73
2018-03-07T04:17:49.613Z,37.00
2018-03-07T04:20:20.237Z,35.60
2018-03-07T04:22:50.140Z,36.60
2018-03-07T04:25:20.783Z,37.77
2018-03-07T04:27:51.291Z,37.90
2018-03-07T04:30:22.011Z,37.57
2018-03-07T04:32:51.968Z,38.37
2018-03-07T04:35:22.532Z,36.13
2018-03-07T04:37:52.589Z,36.87
2018-03-07T04:40:23.137Z,36.50
2018-03-07T04:42:54.485Z,37.97
2018-03-07T04:45:24.914Z,37.77
2018-03-07T04:47:55.555Z,37.63
2018-03-07T04:50:26.279Z,39.70
2018-03-07T04:52:57.179Z,39.77
2018-03-07T04:55:27.517Z,41.90
2018-03-07T04:57:58.220Z,46.07
2018-03-07T05:00:29.544Z,46.00
2018-03-07T05:02:59.852Z,47.57
2018-03-07T05:05:30.354Z,47.77
2018-03-07T05:08:00.812Z,46.97
2018-03-07T05:10:31.458Z,50.17
2018-03-07T05:13:02.178Z,51.13
2018-03-07T05:15:32.148Z,51.10
2018-03-07T05:18:03.028Z,51.20
2018-03-07T05:20:34.053Z,52.40
2018-03-07T05:23:06.023Z,52.37
2018-03-07T05:25:36.572Z,53.17
2018-03-07T05:28:07.384Z,47.80
2018-03-07T05:30:38.097Z,47.67
2018-03-07T05:33:08.871Z,49.97
2018-03-07T05:35:39.625Z,51.47
2018-03-07T05:38:10.330Z,50.57
2018-03-07T05:40:40.887Z,51.43
2018-03-07T05:43:11.254Z,53.93
2018-03-07T05:45:41.695Z,51.87
2018-03-07T05:48:12.396Z,49.60
2018-03-07T05:50:42.833Z,54.90
2018-03-07T05:53:13.397Z,53.77
2018-03-07T05:55:44.037Z,50.73
2018-03-07T05:58:13.954Z,50.33
2018-03-07T06:00:44.611Z,54.07
2018-03-07T06:03:15.316Z,55.70
2018-03-07T06:05:46.248Z,53.70
2018-03-07T06:08:17.065Z,47.37
2018-03-07T06:10:47.925Z,52.37
2018-03-07T06:13:18.890Z,49.90
2018-03-07T06:15:49.657Z,42.87
2018-03-07T06:18:20.276Z,44.53
2018-03-07T06:20:50.998Z,42.63
2018-03-07T06:23:21.697Z,31.67
2018-03-07T06:25:52.427Z,27.17
2018-03-07T06:28:22.911Z,26.33
2018-03-07T06:30:53.426Z,24.43
2018-03-07T06:33:24.265Z,29.00
2018-03-07T06:35:55.394Z,30.33
2018-03-07T06:38:26.076Z,31.47
2018-03-07T06:40:56.534Z,27.47
2018-03-07T06:43:26.433Z,28.97
2018-03-07T06:45:57.229Z,30.10
2018-03-07T06:48:28.003Z,30.83
2018-03-07T06:50:58.511Z,26.33
2018-03-07T06:53:29.270Z,28.23
2018-03-07T06:56:00.268Z,27.47
2018-03-07T06:58:31.277Z,29.50
2018-03-07T07:01:01.171Z,28.07
2018-03-07T07:03:32.071Z,29.23
2018-03-07T07:06:01.919Z,28.10
2018-03-07T07:08:32.648Z,31.20
2018-03-07T07:11:03.802Z,27.63
2018-03-07T07:13:34.420Z,31.13
2018-03-07T07:16:05.020Z,28.90
2018-03-07T07:18:36.977Z,23.23
2018-03-07T07:21:08.754Z,23.00
2018-03-07T07:23:39.123Z,27.40
2018-03-07T07:26:10.455Z,27.80
2018-03-07T07:28:41.151Z,27.83
2018-03-07T07:31:11.932Z,28.93
2018-03-07T07:33:42.049Z,26.03
2018-03-07T07:36:12.730Z,25.93
2018-03-07T07:38:44.196Z,25.73
2018-03-07T07:41:15.165Z,28.00
2018-03-07T07:43:46.171Z,28.93
2018-03-07T07:46:16.785Z,31.53
2018-03-07T07:48:47.349Z,30.20
2018-03-07T07:51:18.228Z,29.40
2018-03-07T07:53:49.305Z,28.63
2018-03-07T07:56:20.034Z,27.33
2018-03-07T07:58:51.331Z,28.87
2018-03-07T08:01:22.852Z,27.67
2018-03-07T08:03:53.939Z,24.17
2018-03-07T08:06:24.684Z,25.80
2018-03-07T08:08:55.564Z,22.03
2018-03-07T08:11:26.617Z,24.70
2018-03-07T08:13:57.217Z,23.20
2018-03-07T08:16:28.131Z,22.87
2018-03-07T08:18:59.250Z,26.40
2018-03-07T08:21:29.841Z,27.07
2018-03-07T08:23:59.919Z,28.33
2018-03-07T08:26:30.538Z,25.07
2018-03-07T08:29:01.468Z,24.37
2018-03-07T08:31:31.972Z,23.57
2018-03-07T08:34:02.697Z,25.00
2018-03-07T08:36:33.577Z,25.13
2018-03-07T08:39:04.208Z,28.20
2018-03-07T08:41:34.928Z,28.87
2018-03-07T08:44:04.846Z,30.20
2018-03-07T08:46:35.765Z,27.27
2018-03-07T08:49:06.480Z,24.80
2018-03-07T08:51:37.201Z,26.43
2018-03-07T08:54:08.132Z,25.47
2018-03-07T08:56:38.863Z,27.73
2018-03-07T08:59:09.497Z,27.83
2018-03-07T09:01:40.176Z,28.67
2018-03-07T09:04:10.579Z,28.07
2018-03-07T09:06:41.367Z,28.23
2018-03-07T09:09:11.281Z,29.40
2018-03-07T09:11:42.673Z,28.00
2018-03-07T09:14:13.876Z,30.27
2018-03-07T09:16:45.015Z,28.83
2018-03-07T09:19:17.183Z,28.87
2018-03-07T09:21:48.627Z,30.07
2018-03-07T09:24:19.686Z,28.67
2018-03-07T09:26:50.601Z,36.03
2018-03-07T09:29:21.146Z,39.57
2018-03-07T09:31:52.269Z,34.70
2018-03-07T09:34:23.104Z,44.00
2018-03-07T09:36:54.125Z,37.03
2018-03-07T09:39:25.121Z,46.53
2018-03-07T09:41:55.518Z,43.73
2018-03-07T09:44:25.535Z,38.43
2018-03-07T09:46:56.262Z,41.07
2018-03-07T09:49:26.729Z,38.03
2018-03-07T09:51:57.509Z,37.23
2018-03-07T09:54:28.230Z,39.03
2018-03-07T09:56:58.700Z,36.83
2018-03-07T09:59:29.340Z,32.30
2018-03-07T10:02:00.182Z,36.13
2018-03-07T10:04:30.271Z,31.87
2018-03-07T10:07:01.411Z,30.63
2018-03-07T10:09:32.263Z,29.73
2018-03-07T10:12:02.787Z,32.90
2018-03-07T10:14:33.319Z,28.77
2018-03-07T10:17:04.041Z,29.27
2018-03-07T10:19:34.664Z,29.77
2018-03-07T10:22:04.715Z,30.30
2018-03-07T10:24:35.473Z,29.23
2018-03-07T10:27:05.867Z,26.43
2018-03-07T10:29:36.476Z,29.40
2018-03-07T10:32:08.486Z,26.63
2018-03-07T10:34:39.165Z,26.77
2018-03-07T10:37:09.836Z,27.60
2018-03-07T10:39:41.053Z,24.77
2018-03-07T10:42:11.870Z,27.20
2018-03-07T10:44:42.864Z,28.47
2018-03-07T10:47:13.692Z,30.57
2018-03-07T10:49:44.543Z,35.63
2018-03-07T10:52:15.378Z,34.83
2018-03-07T10:54:47.003Z,36.50
2018-03-07T10:57:17.618Z,35.73
2018-03-07T10:59:48.376Z,33.53
2018-03-07T11:02:19.067Z,34.17
2018-03-07T11:11:38.884Z,29.73
2018-03-07T11:14:09.680Z,30.20
2018-03-07T11:16:40.264Z,28.30
2018-03-07T11:19:11.563Z,29.27
2018-03-07T11:21:41.981Z,28.00
2018-03-07T11:24:12.813Z,29.67
2018-03-07T11:26:43.448Z,30.70
2018-03-07T11:29:14.731Z,32.10
2018-03-07T11:31:45.406Z,31.80
2018-03-07T11:34:16.208Z,27.93
2018-03-07T11:36:46.736Z,28.63
2018-03-07T11:39:17.629Z,31.00
2018-03-07T11:41:48.118Z,29.93
2018-03-07T11:44:18.638Z,29.30
2018-03-07T11:46:49.592Z,29.97
2018-03-07T11:49:20.411Z,28.87
2018-03-07T11:51:50.462Z,28.53
2018-03-07T11:54:21.923Z,29.87
2018-03-07T11:56:52.672Z,30.07
2018-03-07T11:59:23.514Z,27.50
2018-03-07T12:01:54.138Z,27.03
2018-03-07T12:04:25.102Z,27.53
2018-03-07T12:06:55.608Z,27.43
2018-03-07T12:09:26.846Z,27.23
2018-03-07T12:11:57.348Z,26.90
2018-03-07T12:14:28.456Z,26.50
2018-03-07T12:16:59.233Z,26.33
2018-03-07T12:19:30.112Z,26.23
2018-03-07T12:22:00.430Z,27.00
2018-03-07T12:24:30.855Z,25.80
2018-03-07T12:27:01.489Z,26.13
2018-03-07T12:29:32.006Z,26.13
2018-03-07T12:32:02.436Z,25.77
2018-03-07T12:34:32.550Z,25.13
2018-03-07T12:37:03.266Z,28.50
2018-03-07T12:39:34.252Z,28.10
2018-03-07T12:42:04.755Z,27.90
2018-03-07T12:44:35.801Z,27.20
2018-03-07T12:47:06.532Z,26.10
2018-03-07T12:49:37.269Z,25.50
2018-03-07T12:52:07.709Z,25.83
2018-03-07T12:54:38.276Z,25.47
2018-03-07T12:57:08.925Z,25.93
2018-03-07T12:59:39.487Z,25.80
2018-03-07T13:02:09.922Z,24.77
2018-03-07T13:04:40.758Z,26.07
2018-03-07T13:07:11.083Z,25.90
2018-03-07T13:09:42.482Z,27.07
2018-03-07T13:12:13.126Z,27.53
2018-03-07T13:14:43.376Z,25.90
2018-03-07T13:17:14.006Z,25.73
2018-03-07T13:19:44.760Z,25.27
2018-03-07T13:22:15.395Z,24.27
2018-03-07T13:24:46.122Z,23.17
2018-03-07T13:27:16.238Z,22.80
2018-03-07T13:29:46.862Z,20.87
2018-03-07T13:32:17.384Z,20.87
2018-03-07T13:34:49.363Z,22.93
2018-03-07T13:37:20.827Z,22.00
2018-03-07T13:39:51.980Z,20.53
2018-03-07T13:42:23.654Z,24.83
2018-03-07T13:44:54.715Z,24.23
2018-03-07T13:47:25.602Z,25.50
2018-03-07T13:49:56.477Z,25.63
2018-03-07T13:52:27.877Z,26.27
2018-03-07T13:54:58.416Z,25.13
2018-03-07T13:57:29.281Z,25.87
2018-03-07T14:00:00.384Z,24.13
2018-03-07T14:02:30.790Z,24.03
2018-03-07T14:05:02.156Z,24.20
2018-03-07T14:07:32.716Z,24.33
2018-03-07T14:10:03.215Z,23.77
2018-03-07T14:12:33.881Z,23.10
2018-03-07T14:15:04.870Z,22.07
2018-03-07T14:17:35.599Z,22.20
2018-03-07T14:20:06.814Z,20.37
2018-03-07T14:22:37.312Z,20.40
2018-03-07T14:25:07.925Z,19.80
2018-03-07T14:27:38.683Z,20.87
2018-03-07T14:30:09.374Z,18.30
2018-03-07T14:32:40.020Z,20.07
2018-03-07T14:35:10.870Z,18.47
2018-03-07T14:37:42.031Z,19.03
2018-03-07T14:40:12.170Z,18.03
2018-03-07T14:42:42.762Z,18.37
2018-03-07T14:45:13.521Z,19.00
2018-03-07T14:47:43.936Z,18.57
2018-03-07T14:50:15.291Z,18.53
2018-03-07T14:52:46.084Z,17.87
2018-03-07T14:55:17.414Z,18.43
2018-03-07T14:57:47.498Z,19.57
2018-03-07T15:00:18.216Z,18.00
2018-03-07T15:02:49.247Z,18.53
2018-03-07T15:05:19.470Z,17.57
2018-03-07T15:07:50.680Z,17.40
2018-03-07T15:10:21.560Z,19.50
2018-03-07T15:12:52.319Z,18.23
2018-03-07T15:15:24.023Z,18.60
2018-03-07T15:17:54.848Z,18.03
2018-03-07T15:20:25.435Z,17.40
2018-03-07T15:22:56.270Z,17.43
2018-03-07T15:25:27.192Z,16.73
2018-03-07T15:27:58.727Z,16.43
2018-03-07T15:30:29.958Z,16.30
2018-03-07T15:33:01.346Z,15.47
2018-03-07T15:35:32.184Z,14.63
2018-03-07T15:38:02.701Z,16.40
2018-03-07T15:40:33.645Z,15.17
2018-03-07T15:43:04.800Z,15.50
2018-03-07T15:45:35.326Z,15.53
2018-03-07T15:48:07.179Z,15.87
2018-03-07T15:50:38.148Z,16.37
2018-03-07T15:53:08.966Z,17.10
2018-03-07T15:55:39.800Z,15.87
2018-03-07T15:58:10.633Z,17.57
2018-03-07T16:00:41.428Z,17.50
2018-03-07T16:03:11.792Z,16.80
2018-03-07T16:05:42.513Z,16.77
2018-03-07T16:08:13.815Z,15.70
2018-03-07T16:10:44.672Z,16.97
2018-03-07T16:13:15.541Z,17.10
2018-03-07T16:15:45.352Z,17.43
2018-03-07T16:18:15.767Z,18.30
2018-03-07T16:20:46.410Z,16.83
2018-03-07T16:23:17.305Z,16.37
2018-03-07T16:25:47.968Z,16.60
2018-03-07T16:28:18.703Z,16.93
2018-03-07T16:30:49.109Z,16.53
2018-03-07T16:33:20.080Z,15.97
2018-03-07T16:35:50.343Z,16.27
2018-03-07T16:38:20.914Z,16.47
2018-03-07T16:40:51.662Z,16.27
2018-03-07T16:43:22.372Z,15.70
2018-03-07T16:45:52.115Z,15.53
2018-03-07T16:48:21.931Z,15.73
2018-03-07T16:50:51.742Z,15.30
2018-03-07T16:53:21.657Z,17.50
2018-03-07T16:55:51.574Z,16.60
2018-03-07T16:58:21.395Z,16.27
2018-03-07T17:00:51.300Z,17.10
2018-03-07T17:03:21.219Z,16.20
2018-03-07T17:05:51.096Z,15.90
2018-03-07T17:08:20.950Z,16.10
2018-03-07T17:10:51.371Z,17.13
2018-03-07T17:13:21.390Z,17.30
2018-03-07T17:15:51.140Z,17.17
2018-03-07T17:18:21.018Z,16.17
2018-03-07T17:20:50.828Z,18.53
2018-03-07T17:23:20.746Z,18.17
2018-03-07T17:25:50.553Z,18.37
2018-03-07T17:28:20.375Z,17.30
2018-03-07T17:30:50.254Z,17.73
2018-03-07T17:33:20.100Z,17.10
2018-03-07T17:35:49.915Z,17.63
2018-03-07T17:38:19.823Z,14.63
2018-03-07T17:40:49.649Z,13.27
2018-03-07T17:43:19.557Z,14.77
2018-03-07T17:45:50.093Z,14.60
2018-03-07T17:48:19.995Z,14.93
2018-03-07T17:50:50.056Z,15.67
2018-03-07T17:53:19.933Z,14.97
2018-03-07T17:55:49.744Z,13.47
2018-03-07T17:58:19.551Z,13.33
2018-03-07T18:00:49.358Z,12.97
2018-03-07T18:03:19.192Z,12.00
2018-03-07T18:05:49.611Z,13.10
2018-03-07T18:08:19.385Z,12.70
2018-03-07T18:10:49.362Z,13.47
2018-03-07T18:13:19.354Z,12.30
2018-03-07T18:15:49.274Z,13.53
2018-03-07T18:18:19.076Z,12.77
2018-03-07T18:20:48.995Z,12.37
2018-03-07T18:23:18.809Z,13.07
2018-03-07T18:25:48.723Z,13.43
2018-03-07T18:28:18.635Z,13.80
2018-03-07T18:30:48.448Z,15.00
2018-03-07T18:33:18.485Z,15.60
2018-03-07T18:35:48.737Z,16.77
2018-03-07T18:38:18.728Z,17.07
2018-03-07T18:40:48.818Z,17.37
2018-03-07T18:43:18.643Z,17.60
2018-03-07T18:45:48.655Z,17.87
2018-03-07T18:48:18.574Z,16.47
2018-03-07T18:50:48.501Z,17.53
2018-03-07T18:53:18.303Z,15.90
2018-03-07T18:55:48.216Z,16.40
2018-03-07T18:58:18.075Z,16.17
2018-03-07T19:00:48.048Z,13.80
2018-03-07T19:03:17.859Z,14.77
2018-03-07T19:05:47.886Z,14.00
2018-03-07T19:08:17.994Z,13.57
2018-03-07T19:10:48.020Z,13.07
2018-03-07T19:13:17.940Z,12.73
2018-03-07T19:16:02.693Z,12.60
2018-03-07T19:18:32.623Z,12.03
2018-03-07T19:21:02.520Z,11.67
2018-03-07T19:23:32.336Z,12.03
2018-03-07T19:26:02.153Z,11.43
2018-03-07T19:28:32.070Z,12.10
2018-03-07T19:31:01.877Z,13.20
2018-03-07T19:33:31.794Z,13.40
2018-03-07T19:36:01.605Z,12.53
2018-03-07T19:38:31.520Z,13.20
2018-03-07T19:41:01.327Z,12.23
2018-03-07T19:43:31.147Z,11.00
2018-03-07T19:46:01.178Z,10.40
2018-03-07T19:48:30.981Z,12.70
2018-03-07T19:51:00.884Z,14.33
2018-03-07T19:53:30.723Z,13.20
2018-03-07T19:56:00.616Z,14.00
2018-03-07T19:58:30.438Z,21.50
2018-03-07T20:01:00.339Z,28.00
2018-03-07T20:03:30.182Z,35.70
2018-03-07T20:05:59.970Z,47.33
2018-03-07T20:08:30.098Z,37.77
2018-03-07T20:10:59.903Z,39.23
2018-03-07T20:13:29.918Z,40.67
2018-03-07T20:15:59.734Z,38.30
2018-03-07T20:18:29.643Z,36.80
2018-03-07T20:20:59.433Z,34.70
2018-03-07T20:23:29.373Z,35.67
2018-03-07T20:25:59.403Z,35.20
2018-03-07T20:28:29.200Z,36.87
2018-03-07T20:30:59.014Z,37.10
2018-03-07T20:33:28.826Z,41.63
2018-03-07T20:35:59.902Z,49.60
2018-03-07T20:38:29.824Z,50.87
2018-03-07T20:40:59.716Z,49.60
2018-03-07T20:43:29.714Z,49.03
2018-03-07T20:45:59.750Z,52.27
2018-03-07T20:48:29.645Z,56.27
2018-03-07T20:51:00.470Z,58.20
2018-03-07T20:53:30.398Z,56.37
2018-03-07T20:56:00.189Z,52.80
2018-03-07T20:58:30.039Z,46.83
2018-03-07T21:00:59.807Z,45.07
2018-03-07T21:03:29.651Z,38.57
2018-03-07T21:05:59.444Z,39.00
2018-03-07T21:08:29.281Z,40.07
2018-03-07T21:10:59.089Z,38.77
2018-03-07T21:13:28.897Z,39.23
2018-03-07T21:15:58.714Z,38.27
2018-03-07T21:18:28.537Z,38.73
2018-03-07T21:20:58.336Z,40.70
2018-03-07T21:23:28.174Z,38.07
2018-03-07T21:25:58.181Z,35.17
2018-03-07T21:28:27.992Z,31.83
2018-03-07T21:30:57.805Z,31.20
2018-03-07T21:33:27.716Z,31.93
2018-03-07T21:35:57.630Z,30.53
2018-03-07T21:38:27.638Z,30.30
2018-03-07T21:40:57.461Z,29.63
2018-03-07T21:43:27.369Z,29.37
2018-03-07T21:45:57.394Z,28.50
2018-03-07T21:48:27.204Z,29.73
2018-03-07T21:50:57.019Z,28.53
2018-03-07T21:53:26.926Z,29.40
2018-03-07T21:55:56.748Z,28.90
2018-03-07T21:58:26.557Z,29.07
2018-03-07T22:00:56.364Z,28.00
2018-03-07T22:03:26.277Z,28.70
2018-03-07T22:05:56.199Z,27.83
2018-03-07T22:08:26.008Z,26.83
2018-03-07T22:10:55.823Z,28.13
2018-03-07T22:13:25.629Z,29.10
2018-03-07T22:15:55.446Z,28.37
2018-03-07T22:18:25.256Z,28.17
2018-03-07T22:20:55.699Z,28.87
2018-03-07T22:23:27.072Z,28.63
2018-03-07T22:25:57.610Z,26.23
2018-03-07T22:28:28.193Z,26.83
2018-03-07T22:30:59.047Z,22.90
2018-03-07T22:33:29.459Z,28.13
2018-03-07T22:36:00.187Z,29.97
2018-03-07T22:38:30.767Z,29.23
2018-03-07T22:41:01.068Z,27.83
2018-03-07T22:43:32.101Z,26.57
2018-03-07T22:46:02.667Z,27.67
2018-03-07T22:48:33.325Z,29.00
2018-03-07T22:51:04.057Z,25.90
2018-03-07T22:53:34.911Z,22.53
2018-03-07T22:56:05.527Z,22.70
2018-03-07T22:58:35.785Z,27.83
2018-03-07T23:01:05.693Z,29.10
2018-03-07T23:03:36.246Z,27.93
2018-03-07T23:06:06.629Z,27.57
2018-03-07T23:08:37.391Z,27.00
2018-03-07T23:11:07.802Z,26.80
2018-03-07T23:13:38.890Z,27.30
2018-03-07T23:16:09.378Z,30.97
2018-03-07T23:18:40.548Z,27.90
2018-03-07T23:21:11.260Z,31.40
2018-03-07T23:23:42.005Z,32.33
2018-03-07T23:26:11.883Z,33.70
2018-03-07T23:28:42.861Z,31.43
2018-03-07T23:31:13.345Z,28.47
2018-03-07T23:33:43.776Z,29.87
2018-03-07T23:36:14.143Z,30.27
2018-03-07T23:38:44.761Z,33.10
2018-03-07T23:41:15.667Z,33.50
2018-03-07T23:43:46.539Z,33.27
2018-03-07T23:46:17.220Z,30.73
2018-03-07T23:48:47.588Z,31.17
2018-03-07T23:51:18.235Z,30.57
2018-03-07T23:53:48.647Z,28.17
2018-03-07T23:56:19.404Z,30.30
2018-03-07T23:58:50.193Z,25.67
